Currie, MN (56123)

5:52 PM CDT on July 11, 2014 (GMT -0500)
300th st (KMNWESTB4) Elev 1457 ft | 44.05 °N, 95.44 °W | Change Station

Current weather conditions updated 7 minutes ago

Clear
Clear
84.2 °F
Feels Like 92 °F
N
5.1
Wind Variable Wind from SSW

Tomorrow is forecast to be Much Cooler than today. Rain with a few rumbles of thunder.

Today
High -- | Low -- °F
--% Chance of Precip.
Yesterday
High -- | Low -- °F
Precip. -- in
5:49 AM 9:04 PM
Full, 100% visible
Pressure 29.97 in
Visibility 10.0 miles
Clouds Clear
Heat Index 92 °F
Dew Point 74 °F
Humidity 72%
Rainfall 0.40 in
Snow Depth Not available.
UV 4 out of 12
Pollen .60 out of 12
Air Quality Not available.
Flu Activity Sporadic
METAR KTKC 112232Z AUTO 22005KT 10SM CLR 29/22 A2997 RMK AO2 T02900221

More Conditions Fewer Conditions

Pressure 29.97 in
Visibility 10.0 miles
Clouds Clear
Heat Index 92 °F
Dew Point 74 °F
Humidity 72%
Rainfall 0.40 in
Snow Depth Not available.
UV 4 out of 12
Pollen .60 out of 12
Air Quality Not available.
Flu Activity Sporadic
METAR KTKC 112232Z AUTO 22005KT 10SM CLR 29/22 A2997 RMK AO2 T02900221

More Conditions Fewer Conditions

10-Day Weather Forecast

Almanac

Astronomy

Jul. 11, 2014 Rise Set
Actual Time 5:49 AM CDT 9:04 PM CDT
Civil Twilight 5:13 AM CDT 9:40 PM CDT
Nautical Twilight 4:28 AM CDT 10:25 PM CDT
Astronomical Twilight 3:31 AM CDT 11:21 PM CDT
Moon 8:12 PM CDT 5:04 AM CDT
Length of Visible Light 16h 26m
Length of Day
15h 15m
Tomorrow will be 1m 23s shorter.
Full, 100% of the Moon is Illuminated
Today
Full
Jul 12
Full
Jul 18
Last Quarter
Jul 26
New
Aug 3
First Quarter

Today's Extremes

State Highs State Lows

Community

WunderPhotos

Upload Photos

1,732,583 photos uploaded!

WunderBlogs® & News

Nearby

Snow Depth

Station Depth Elevation
No new snow has been reported.

Earthquake Activity

City Distance Mag. Time & Date
No recent earthquake activity has been reported nearby.
Minimum magnitude displayed is 2.5.

Coastal Water Temperatures

Place Temperature
No Stations Reporting

Nearby Weather Stations

Station Location Temp. Heat Index Dew Point Humidity Wind Precip. Elev Updated Type
300th st, Westbrook, MN 84.2 °F 92 °F 74 °F 72% SSW  at  5.1 mph - / hr 1457 ft 5:45 PM CDT Normal
CityViewRanch, Westbrook, MN 83.2 °F 91 °F 75 °F 76% West  at  4.0 mph 0.00 in / hr 1432 ft 5:46 PM CDT Normal
Sorenson Seed, Storden, MN 82.1 °F 88 °F 73 °F 75% WSW  at  3.0 mph 0.00 in / hr 1404 ft 5:50 PM CDT Normal
MesoWest HERONL , Heron Lake, MN 79 °F 77 °F - - North  at  - 0.00 in / hr 1404 ft 2:35 PM CDT MADIS
Ryan Farms, Springfield, MN 83.5 °F 91 °F 75 °F 75% East  at  5.0 mph 0.00 in / hr 1076 ft 5:52 PM CDT Normal

Show More Stations Show Fewer Stations